Time;durP1;ratioP1;P1;durP2;ratioP2;P2;SDS_P1;SDS_P2;PMS_P1;PMS_P2;Temp;Humidity;BMP_temperature;BMP_pressure;BME280_temperature;BME280_humidity;BME280_pressure;Samples;Min_cycle;Max_cycle;Signal;HPM_P1;HPM_P2
2020/12/16 06:24:20;;;;;;;28.58;15.75;;;1.70;83.00;;;;;;5112379;27;20365;-40
2020/12/16 06:26:55;;;;;;;26.63;14.23;;;1.70;84.10;;;;;;5113080;28;20028;-44
2020/12/16 06:29:21;;;;;;;19.08;11.55;;;1.80;84.70;;;;;;5112244;28;20022;-44
2020/12/16 06:31:48;;;;;;;24.45;13.25;;;1.90;85.20;;;;;;5110780;28;20024;-43
2020/12/16 06:34:14;;;;;;;29.25;15.20;;;2.00;85.50;;;;;;5113102;28;20034;-43
2020/12/16 06:36:42;;;;;;;33.50;18.35;;;2.10;85.80;;;;;;5112453;28;20379;-43
2020/12/16 06:39:21;;;;;;;26.15;15.23;;;2.30;86.10;;;;;;5111822;28;20057;-44
2020/12/16 06:42:00;;;;;;;25.60;14.48;;;2.40;85.90;;;;;;5111943;28;20051;-44
2020/12/16 06:44:26;;;;;;;31.20;19.63;;;2.50;85.70;;;;;;5112212;28;20034;-42
2020/12/16 06:46:54;;;;;;;68.20;24.20;;;2.60;85.60;;;;;;5112424;28;20067;-42
2020/12/16 06:49:22;;;;;;;28.10;15.18;;;2.80;85.30;;;;;;5112313;28;20433;-42
2020/12/16 06:51:50;;;;;;;30.77;17.50;;;2.90;84.90;;;;;;5108917;28;20451;-42
2020/12/16 06:54:18;;;;;;;39.10;26.83;;;3.00;84.50;;;;;;5112402;28;20031;-43
2020/12/16 06:56:45;;;;;;;40.08;24.55;;;3.00;84.10;;;;;;5112082;28;20020;-43
2020/12/16 06:59:49;;;;;;;37.38;23.45;;;3.10;84.40;;;;;;5111527;28;20035;-43
2020/12/16 07:02:25;;;;;;;23.60;14.13;;;3.20;83.50;;;;;;5089724;28;20076;-42
2020/12/16 07:04:51;;;;;;;18.73;11.02;;;3.30;83.40;;;;;;5092279;28;20059;-43
2020/12/16 07:07:49;;;;;;;22.48;14.77;;;3.30;83.10;;;;;;5090473;28;20089;-43
2020/12/16 07:10:33;;;;;;;23.42;14.48;;;3.40;82.60;;;;;;5108150;28;20124;-43
2020/12/16 07:13:22;;;;;;;28.45;16.42;;;3.40;82.50;;;;;;5112611;28;20111;-43
2020/12/16 07:15:51;;;;;;;25.38;14.98;;;3.50;82.30;;;;;;5112455;28;20038;-43
2020/12/16 07:18:21;;;;;;;25.88;15.95;;;3.50;82.30;;;;;;5111902;28;20032;-43
2020/12/16 07:20:49;;;;;;;25.67;15.98;;;3.50;82.10;;;;;;5112763;28;20024;-44
2020/12/16 07:23:16;;;;;;;22.60;13.95;;;3.50;82.00;;;;;;5109345;28;20131;-43
2020/12/16 07:25:46;;;;;;;21.70;12.63;;;3.60;81.90;;;;;;5110848;28;20114;-42
2020/12/16 07:28:13;;;;;;;19.73;11.77;;;3.60;81.30;;;;;;5110900;28;20119;-41
2020/12/16 07:30:51;;;;;;;22.10;13.00;;;3.60;81.30;;;;;;5110541;28;20389;-41
2020/12/16 07:33:17;;;;;;;20.80;14.07;;;3.60;80.80;;;;;;5111538;28;20125;-41
2020/12/16 07:35:47;;;;;;;24.27;13.93;;;3.60;80.90;;;;;;5095724;28;20052;-41
2020/12/16 07:38:15;;;;;;;25.98;14.70;;;3.60;80.80;;;;;;5090985;28;20076;-41
2020/12/16 07:40:42;;;;;;;22.42;14.52;;;3.60;80.80;;;;;;5081778;28;20032;-41
2020/12/16 07:43:08;;;;;;;28.23;17.33;;;3.60;80.80;;;;;;5077562;28;20097;-41
2020/12/16 07:45:34;;;;;;;24.40;15.52;;;3.60;80.70;;;;;;5077837;28;20028;-41
2020/12/16 07:48:02;;;;;;;22.58;13.20;;;3.70;80.70;;;;;;5077972;28;20028;-41
2020/12/16 07:50:28;;;;;;;25.55;16.05;;;3.70;80.80;;;;;;5095448;28;20429;-41
2020/12/16 07:52:54;;;;;;;23.17;14.38;;;3.70;80.70;;;;;;5094697;28;20036;-42
2020/12/16 07:55:26;;;;;;;30.65;18.65;;;3.70;80.70;;;;;;5087123;28;20072;-42
2020/12/16 07:57:52;;;;;;;20.52;12.93;;;3.70;80.40;;;;;;5089194;28;20028;-41
2020/12/16 08:00:23;;;;;;;25.45;14.68;;;3.80;80.50;;;;;;5097932;28;20543;-42
2020/12/16 08:02:52;;;;;;;22.48;14.07;;;3.80;80.30;;;;;;5098175;28;20409;-41
2020/12/16 08:05:18;;;;;;;18.65;12.93;;;3.80;80.10;;;;;;5097656;28;20031;-40
2020/12/16 08:07:44;;;;;;;21.35;13.35;;;3.80;79.90;;;;;;5097293;28;20028;-40
2020/12/16 08:10:10;;;;;;;32.80;20.98;;;3.80;79.40;;;;;;5097989;28;20425;-42
2020/12/16 08:12:41;;;;;;;363.88;196.52;;;3.80;79.20;;;;;;5097439;28;20042;-41
2020/12/16 08:15:17;;;;;;;193.07;94.50;;;3.80;79.20;;;;;;5097305;28;20024;-41
2020/12/16 08:17:45;;;;;;;53.38;30.83;;;3.80;79.30;;;;;;5097497;28;20039;-43
2020/12/16 08:20:18;;;;;;;39.47;24.35;;;3.90;79.40;;;;;;5097419;28;20020;-43
2020/12/16 08:22:47;;;;;;;36.92;21.40;;;3.90;79.10;;;;;;5096195;28;20083;-43
2020/12/16 08:25:15;;;;;;;38.80;21.52;;;3.90;79.20;;;;;;5096575;28;20055;-44
2020/12/16 08:27:52;;;;;;;33.88;19.40;;;3.80;79.20;;;;;;5094412;28;20036;-43
2020/12/16 08:30:20;;;;;;;39.15;24.20;;;3.80;79.00;;;;;;5096266;28;20474;-43
2020/12/16 08:32:58;;;;;;;33.47;21.20;;;3.80;79.10;;;;;;5094297;28;20036;-44
2020/12/16 08:35:31;;;;;;;39.17;26.38;;;3.90;79.10;;;;;;5090537;28;20024;-43
2020/12/16 08:38:03;;;;;;;55.75;36.08;;;3.90;79.10;;;;;;5094910;28;20359;-43
2020/12/16 08:40:29;;;;;;;45.67;30.65;;;3.80;79.10;;;;;;5074530;28;20024;-43
2020/12/16 08:42:55;;;;;;;55.72;37.80;;;3.80;79.10;;;;;;5074034;28;20044;-43
2020/12/16 08:45:21;;;;;;;37.45;25.50;;;3.80;79.10;;;;;;5093532;28;20104;-43
2020/12/16 08:47:48;;;;;;;29.70;19.30;;;3.90;79.00;;;;;;5092745;28;20421;-44
2020/12/16 08:50:16;;;;;;;29.45;19.67;;;3.90;79.00;;;;;;5094838;28;20334;-43
2020/12/16 08:52:48;;;;;;;27.77;16.88;;;3.90;78.90;;;;;;5095394;28;20028;-44
2020/12/16 08:55:20;;;;;;;25.40;16.02;;;3.90;78.80;;;;;;5095297;28;20024;-43
2020/12/16 08:57:54;;;;;;;28.65;18.45;;;3.90;78.90;;;;;;5075063;28;20120;-43
2020/12/16 09:00:35;;;;;;;34.25;24.55;;;3.90;78.80;;;;;;5076888;28;20024;-43
2020/12/16 09:03:12;;;;;;;95.13;38.95;;;3.90;78.70;;;;;;5076630;28;20098;-43
2020/12/16 09:05:40;;;;;;;137.35;49.13;;;3.90;78.30;;;;;;5076327;28;20024;-42
2020/12/16 09:08:13;;;;;;;164.30;55.83;;;3.90;78.30;;;;;;5082363;28;20042;-43
2020/12/16 09:10:40;;;;;;;158.73;57.53;;;3.80;78.00;;;;;;5097138;28;20136;-43
2020/12/16 09:13:10;;;;;;;155.80;53.88;;;3.80;77.70;;;;;;5096239;28;20036;-43
2020/12/16 09:15:36;;;;;;;187.18;59.88;;;3.80;77.50;;;;;;5096714;28;20054;-43
2020/12/16 09:18:03;;;;;;;252.70;74.65;;;3.70;77.50;;;;;;5096224;28;20032;-43
2020/12/16 09:20:30;;;;;;;254.30;80.07;;;3.70;77.60;;;;;;5096909;28;20346;-43
2020/12/16 09:22:56;;;;;;;310.55;91.32;;;3.70;77.80;;;;;;5095909;28;20055;-42
2020/12/16 09:25:22;;;;;;;322.60;96.97;;;3.70;78.10;;;;;;5096703;28;20481;-43
2020/12/16 09:27:56;;;;;;;362.33;102.55;;;3.70;78.20;;;;;;5095141;28;20040;-44
2020/12/16 09:30:35;;;;;;;335.42;95.55;;;3.70;78.20;;;;;;5096089;28;20436;-43
2020/12/16 09:33:12;;;;;;;316.00;101.47;;;3.70;78.20;;;;;;5096292;28;20364;-43
2020/12/16 09:35:38;;;;;;;284.40;88.45;;;3.70;78.40;;;;;;5095980;28;20378;-43
2020/12/16 09:38:14;;;;;;;289.38;86.47;;;3.80;78.30;;;;;;5096038;28;20110;-43
2020/12/16 09:40:40;;;;;;;311.70;89.50;;;3.80;78.20;;;;;;5096348;28;20032;-43
2020/12/16 09:43:09;;;;;;;281.02;87.65;;;3.80;78.10;;;;;;5095285;28;20044;-43
2020/12/16 09:45:37;;;;;;;334.80;95.32;;;3.80;77.90;;;;;;5096172;28;20028;-43
2020/12/16 09:48:03;;;;;;;373.42;108.63;;;3.90;77.90;;;;;;5095101;28;20040;-43
2020/12/16 09:50:34;;;;;;;393.63;117.03;;;3.80;77.70;;;;;;5090789;28;20020;-43
2020/12/16 09:53:01;;;;;;;407.40;125.97;;;3.90;77.70;;;;;;5093770;28;20028;-43
2020/12/16 09:55:28;;;;;;;413.85;118.32;;;3.80;77.70;;;;;;5095362;28;20036;-43
2020/12/16 09:58:04;;;;;;;347.92;99.60;;;3.80;78.30;;;;;;5093401;28;20745;-42
2020/12/16 10:00:31;;;;;;;361.48;111.60;;;3.80;78.00;;;;;;5094615;28;20028;-42
2020/12/16 10:03:03;;;;;;;309.73;95.78;;;3.80;78.10;;;;;;5095349;28;20086;-44
2020/12/16 10:05:29;;;;;;;291.23;87.03;;;3.80;78.10;;;;;;5094781;28;20076;-44
2020/12/16 10:07:55;;;;;;;237.18;77.43;;;3.80;77.90;;;;;;5100723;28;20031;-43
2020/12/16 10:10:21;;;;;;;206.13;70.22;;;3.80;77.40;;;;;;5105182;28;20024;-42
2020/12/16 10:12:48;;;;;;;153.00;56.42;;;3.80;77.40;;;;;;5101751;28;20389;-42
2020/12/16 10:15:14;;;;;;;122.55;53.72;;;3.80;77.60;;;;;;5094974;28;20148;-42
2020/12/16 10:17:40;;;;;;;121.20;49.97;;;3.70;77.40;;;;;;5094557;28;20031;-42
2020/12/16 10:20:06;;;;;;;93.28;40.25;;;3.70;77.10;;;;;;5094314;28;20020;-42
2020/12/16 10:22:32;;;;;;;95.15;41.45;;;3.70;77.20;;;;;;5082819;28;20049;-43
2020/12/16 10:24:58;;;;;;;84.47;42.28;;;3.70;77.30;;;;;;5093870;28;20056;-42
2020/12/16 10:27:23;;;;;;;95.90;40.05;;;3.60;77.40;;;;;;5092000;28;20420;-42
2020/12/16 10:29:49;;;;;;;95.40;47.85;;;3.60;77.60;;;;;;5094666;28;20051;-45
2020/12/16 10:32:15;;;;;;;86.10;39.05;;;3.60;77.80;;;;;;5093184;28;20072;-42
2020/12/16 10:34:41;;;;;;;78.93;35.72;;;3.60;78.00;;;;;;5094110;28;20092;-42
2020/12/16 10:37:07;;;;;;;71.07;31.90;;;3.60;77.90;;;;;;5085003;28;20044;-42
2020/12/16 10:39:33;;;;;;;62.20;28.17;;;3.60;77.60;;;;;;5093719;28;20371;-43
2020/12/16 10:41:59;;;;;;;72.20;34.05;;;3.60;77.20;;;;;;5073207;28;20056;-43
2020/12/16 10:44:26;;;;;;;70.43;31.27;;;3.60;77.30;;;;;;5075982;28;20035;-43
2020/12/16 10:46:54;;;;;;;62.75;29.38;;;3.60;77.30;;;;;;5075102;28;20029;-41
2020/12/16 10:49:22;;;;;;;58.67;26.73;;;3.60;77.30;;;;;;5074445;28;20119;-42
2020/12/16 10:51:47;;;;;;;59.17;27.23;;;3.60;77.20;;;;;;5083888;28;20024;-43
2020/12/16 10:54:15;;;;;;;62.33;31.05;;;3.50;77.20;;;;;;5094788;28;20020;-42
2020/12/16 10:56:40;;;;;;;65.57;28.27;;;3.60;77.50;;;;;;5094496;28;20035;-42
2020/12/16 10:59:06;;;;;;;52.65;26.23;;;3.50;77.30;;;;;;5094284;28;20028;-43
2020/12/16 11:01:37;;;;;;;55.17;27.00;;;3.50;77.20;;;;;;5093698;28;20110;-42
2020/12/16 11:04:08;;;;;;;50.55;25.20;;;3.50;77.20;;;;;;5092931;28;20059;-42
2020/12/16 11:06:36;;;;;;;44.47;21.95;;;3.40;77.10;;;;;;5093499;28;20400;-42
2020/12/16 11:09:03;;;;;;;37.53;18.42;;;3.40;77.20;;;;;;5093521;28;20047;-41
2020/12/16 11:11:29;;;;;;;44.05;23.77;;;3.40;77.40;;;;;;5111342;28;20030;-42
2020/12/16 11:13:55;;;;;;;44.50;22.95;;;3.30;77.60;;;;;;5119184;28;20126;-42
2020/12/16 11:16:30;;;;;;;40.55;21.90;;;3.30;77.80;;;;;;5099744;28;20024;-43
2020/12/16 11:18:56;;;;;;;43.83;23.00;;;3.30;77.50;;;;;;5102458;28;20032;-42
2020/12/16 11:21:21;;;;;;;50.65;24.55;;;3.30;77.30;;;;;;5100292;28;20028;-43
2020/12/16 11:23:47;;;;;;;47.65;24.00;;;3.20;77.30;;;;;;5086937;28;20052;-42
2020/12/16 11:26:13;;;;;;;45.25;23.55;;;3.20;77.80;;;;;;5098497;28;20474;-42
2020/12/16 11:28:39;;;;;;;42.92;23.98;;;3.30;78.00;;;;;;5098060;28;20024;-43
2020/12/16 11:31:05;;;;;;;38.03;21.77;;;3.20;77.90;;;;;;5098675;28;20421;-42
2020/12/16 11:33:30;;;;;;;44.95;21.58;;;3.20;77.70;;;;;;5097166;28;20437;-42
2020/12/16 11:35:56;;;;;;;72.68;28.35;;;3.20;77.80;;;;;;5097589;28;20031;-42
2020/12/16 11:38:22;;;;;;;44.13;22.02;;;3.20;77.60;;;;;;5097727;28;20032;-43
2020/12/16 11:40:48;;;;;;;40.90;21.17;;;3.20;77.30;;;;;;5093051;28;20107;-43
2020/12/16 11:43:13;;;;;;;51.05;20.80;;;3.20;77.30;;;;;;5095383;28;20345;-42
2020/12/16 11:45:39;;;;;;;53.50;22.13;;;3.20;77.50;;;;;;5097765;28;20034;-43
2020/12/16 11:48:05;;;;;;;41.58;22.20;;;3.10;77.70;;;;;;5095881;28;20035;-42
2020/12/16 11:50:31;;;;;;;38.63;19.55;;;3.20;78.20;;;;;;5096784;28;20054;-42
2020/12/16 11:52:56;;;;;;;39.58;23.20;;;3.20;78.40;;;;;;5096501;28;20653;-43
2020/12/16 11:55:22;;;;;;;40.25;21.67;;;3.20;78.40;;;;;;5095861;28;20065;-42
2020/12/16 11:57:47;;;;;;;45.35;25.73;;;3.20;78.20;;;;;;5095913;28;20038;-43
2020/12/16 12:00:13;;;;;;;40.17;21.77;;;3.20;78.20;;;;;;5097590;28;20031;-43
2020/12/16 12:02:39;;;;;;;40.90;22.95;;;3.20;78.20;;;;;;5096984;28;20128;-42
2020/12/16 12:05:05;;;;;;;44.25;24.27;;;3.20;77.80;;;;;;5097860;28;20023;-42
2020/12/16 12:07:31;;;;;;;36.47;20.23;;;3.20;77.80;;;;;;5094970;28;20032;-42
2020/12/16 12:09:57;;;;;;;35.97;20.58;;;3.10;77.60;;;;;;5092164;28;20034;-41
2020/12/16 12:12:23;;;;;;;43.10;23.63;;;3.10;77.50;;;;;;5077692;28;20035;-41
2020/12/16 12:14:48;;;;;;;46.33;25.60;;;3.10;77.70;;;;;;5081278;28;20023;-42
2020/12/16 12:17:14;;;;;;;59.58;34.45;;;3.10;77.90;;;;;;5097236;28;20095;-43
2020/12/16 12:19:42;;;;;;;50.83;27.00;;;3.10;78.30;;;;;;5098046;28;20425;-43
2020/12/16 12:22:10;;;;;;;44.75;26.10;;;3.10;78.50;;;;;;5097174;28;20047;-42
2020/12/16 12:24:36;;;;;;;53.30;28.20;;;3.10;78.30;;;;;;5097069;28;20027;-43
2020/12/16 12:27:04;;;;;;;34.08;19.63;;;3.10;78.10;;;;;;5096810;28;20103;-42
2020/12/16 12:29:30;;;;;;;40.75;23.05;;;3.10;78.00;;;;;;5097605;28;20024;-42
2020/12/16 12:31:57;;;;;;;41.22;23.77;;;3.20;78.00;;;;;;5095463;28;20039;-43
2020/12/16 12:34:22;;;;;;;40.30;21.27;;;3.20;77.90;;;;;;5095650;28;20012;-43
2020/12/16 12:36:49;;;;;;;35.13;19.13;;;3.10;78.00;;;;;;5095156;28;20031;-41
2020/12/16 12:39:15;;;;;;;40.78;20.50;;;3.20;78.20;;;;;;5095904;28;20078;-41
2020/12/16 12:41:40;;;;;;;44.08;21.92;;;3.10;78.30;;;;;;5096494;28;20023;-42
2020/12/16 12:44:06;;;;;;;31.13;17.30;;;3.10;78.30;;;;;;5096143;28;20052;-42
2020/12/16 12:46:33;;;;;;;34.45;18.90;;;3.10;78.10;;;;;;5096744;28;20036;-42
2020/12/16 12:48:59;;;;;;;36.28;18.38;;;3.10;78.10;;;;;;5099212;28;20024;-41
2020/12/16 12:51:27;;;;;;;36.70;19.77;;;3.10;78.20;;;;;;5096435;28;20032;-42
2020/12/16 12:53:54;;;;;;;35.80;20.02;;;3.10;78.00;;;;;;5096948;28;20032;-41
2020/12/16 12:56:22;;;;;;;30.83;17.00;;;3.00;77.80;;;;;;5097365;28;20035;-42
2020/12/16 12:58:48;;;;;;;28.23;15.88;;;3.00;77.80;;;;;;5098631;28;20032;-41
2020/12/16 13:01:14;;;;;;;30.52;16.52;;;3.00;77.90;;;;;;5096373;28;20103;-42
2020/12/16 13:03:40;;;;;;;28.95;16.35;;;3.00;77.80;;;;;;5095321;28;20043;-41
2020/12/16 13:06:09;;;;;;;63.22;40.53;;;2.90;77.40;;;;;;5096899;28;20089;-42
2020/12/16 13:08:36;;;;;;;34.88;21.05;;;2.90;77.80;;;;;;5094143;28;20124;-41
2020/12/16 13:11:02;;;;;;;32.03;18.00;;;2.80;78.00;;;;;;5083507;28;20074;-41
2020/12/16 13:13:28;;;;;;;36.63;19.63;;;2.80;78.10;;;;;;5074741;28;20033;-41
2020/12/16 13:15:54;;;;;;;35.70;20.88;;;2.80;78.30;;;;;;5087372;28;20020;-42
2020/12/16 13:18:19;;;;;;;36.83;19.23;;;2.90;78.60;;;;;;5095210;28;20036;-41
2020/12/16 13:20:45;;;;;;;35.75;20.63;;;2.90;78.60;;;;;;5093284;28;20028;-42
2020/12/16 13:23:11;;;;;;;48.67;25.73;;;2.90;78.50;;;;;;5087556;28;20063;-41
2020/12/16 13:25:37;;;;;;;41.33;22.77;;;2.90;78.40;;;;;;5076405;28;20034;-41
2020/12/16 13:28:02;;;;;;;44.58;23.58;;;2.90;78.50;;;;;;5076045;28;20038;-41
2020/12/16 13:30:28;;;;;;;39.97;23.27;;;2.90;78.40;;;;;;5076652;28;20028;-42
2020/12/16 13:32:54;;;;;;;33.70;18.83;;;3.00;78.70;;;;;;5083125;28;20322;-41
2020/12/16 13:35:20;;;;;;;47.28;25.70;;;2.90;78.60;;;;;;5095626;28;20027;-42
2020/12/16 13:37:48;;;;;;;39.33;23.42;;;2.90;78.40;;;;;;5096146;28;20114;-41
2020/12/16 13:40:14;;;;;;;35.65;20.13;;;2.90;78.30;;;;;;5096331;28;20109;-42
2020/12/16 13:42:40;;;;;;;40.05;22.88;;;2.90;78.40;;;;;;5095707;28;20036;-42
2020/12/16 13:45:06;;;;;;;40.08;23.83;;;2.90;78.40;;;;;;5095652;28;20077;-42
2020/12/16 13:47:32;;;;;;;39.60;22.73;;;3.00;78.40;;;;;;5092652;28;20123;-42
2020/12/16 13:49:57;;;;;;;31.95;18.27;;;3.00;78.30;;;;;;5093570;28;20085;-44
2020/12/16 13:52:23;;;;;;;36.33;20.08;;;2.90;78.10;;;;;;5093942;28;20320;-42
2020/12/16 13:54:49;;;;;;;30.90;16.92;;;2.90;78.00;;;;;;5094541;28;20024;-43
2020/12/16 13:57:14;;;;;;;30.80;17.23;;;2.80;78.20;;;;;;5095103;28;20330;-41
2020/12/16 13:59:40;;;;;;;36.80;18.60;;;2.80;78.40;;;;;;5095611;28;20030;-43
2020/12/16 14:02:06;;;;;;;37.65;20.42;;;2.80;78.50;;;;;;5093986;28;20093;-42
2020/12/16 14:04:32;;;;;;;44.33;24.15;;;2.80;78.70;;;;;;5093641;28;20061;-43
2020/12/16 14:06:58;;;;;;;41.67;21.30;;;2.80;79.00;;;;;;5093217;28;20024;-41
2020/12/16 14:09:23;;;;;;;40.75;22.17;;;2.80;78.90;;;;;;5092814;28;20024;-43
2020/12/16 14:11:51;;;;;;;36.33;19.63;;;2.80;78.50;;;;;;5093273;28;20031;-42
2020/12/16 14:14:18;;;;;;;34.90;19.40;;;2.80;78.40;;;;;;5091720;28;20028;-42
2020/12/16 14:16:43;;;;;;;43.10;24.63;;;2.80;78.50;;;;;;5092279;28;20070;-42
2020/12/16 14:19:09;;;;;;;38.75;20.08;;;2.90;78.80;;;;;;5091284;28;20614;-43
2020/12/16 14:21:35;;;;;;;48.28;26.10;;;2.90;78.60;;;;;;5091535;28;20073;-42
2020/12/16 14:24:01;;;;;;;46.53;23.83;;;2.90;78.50;;;;;;5091143;28;20056;-41
2020/12/16 14:26:26;;;;;;;48.88;25.95;;;2.90;78.50;;;;;;5093522;28;20028;-43
2020/12/16 14:28:52;;;;;;;51.53;24.75;;;2.90;78.20;;;;;;5090112;28;20028;-42
2020/12/16 14:31:19;;;;;;;55.80;25.90;;;2.90;78.00;;;;;;5094170;28;20046;-43
2020/12/16 14:33:46;;;;;;;47.22;24.23;;;2.80;77.70;;;;;;5082472;28;20039;-42
2020/12/16 14:36:12;;;;;;;54.55;26.05;;;2.80;77.50;;;;;;5093607;28;20032;-42
2020/12/16 14:38:39;;;;;;;47.33;24.83;;;2.70;77.50;;;;;;5092894;28;20077;-41
2020/12/16 14:41:06;;;;;;;48.83;24.15;;;2.70;77.90;;;;;;5093863;28;20047;-43
2020/12/16 14:43:32;;;;;;;61.45;27.15;;;2.70;78.00;;;;;;5093389;28;20452;-42
2020/12/16 14:45:58;;;;;;;50.72;24.30;;;2.70;78.20;;;;;;5096842;28;20043;-43
2020/12/16 14:48:24;;;;;;;50.95;22.95;;;2.70;78.50;;;;;;5096668;28;20057;-42
2020/12/16 14:50:50;;;;;;;41.88;19.98;;;2.70;78.70;;;;;;5097380;28;20024;-42
2020/12/16 14:53:16;;;;;;;53.30;22.38;;;2.70;78.90;;;;;;5096766;28;20039;-45
2020/12/16 14:55:41;;;;;;;47.10;21.45;;;2.70;79.00;;;;;;5099084;28;20333;-44
2020/12/16 14:58:08;;;;;;;69.00;29.75;;;2.70;78.90;;;;;;5098772;28;20115;-42
2020/12/16 15:00:34;;;;;;;44.83;22.75;;;2.70;78.70;;;;;;5098200;28;20032;-43
2020/12/16 15:03:00;;;;;;;54.08;25.40;;;2.70;78.60;;;;;;5097879;28;20064;-43
2020/12/16 15:05:26;;;;;;;53.55;25.00;;;2.70;78.90;;;;;;5092136;28;20052;-43
2020/12/16 15:07:55;;;;;;;52.00;24.52;;;2.70;78.80;;;;;;5097134;28;20115;-42
2020/12/16 15:10:21;;;;;;;46.03;23.83;;;2.70;78.40;;;;;;5097405;28;20023;-43
2020/12/16 15:12:49;;;;;;;52.47;24.17;;;2.70;78.10;;;;;;5098192;28;20020;-42
2020/12/16 15:15:16;;;;;;;49.75;22.65;;;2.60;78.10;;;;;;5096494;28;20425;-42
2020/12/16 15:17:42;;;;;;;39.60;19.45;;;2.60;78.20;;;;;;5095882;28;20089;-42
2020/12/16 15:20:09;;;;;;;48.47;22.45;;;2.60;78.30;;;;;;5095777;28;20020;-42
2020/12/16 15:22:34;;;;;;;50.10;22.13;;;2.60;78.50;;;;;;5094486;28;20051;-42
2020/12/16 15:25:00;;;;;;;48.40;22.52;;;2.60;78.70;;;;;;5097459;28;20089;-44
2020/12/16 15:27:26;;;;;;;56.72;24.48;;;2.60;78.90;;;;;;5098059;28;20034;-42
2020/12/16 15:29:52;;;;;;;50.00;24.73;;;2.60;78.90;;;;;;5098371;28;20110;-42
2020/12/16 15:32:18;;;;;;;56.38;22.30;;;2.50;78.80;;;;;;5096697;28;20322;-42
2020/12/16 15:34:43;;;;;;;44.70;21.27;;;2.50;78.70;;;;;;5097985;28;20024;-43
2020/12/16 15:37:11;;;;;;;55.60;26.42;;;2.50;78.60;;;;;;5097492;28;20047;-42
2020/12/16 15:39:37;;;;;;;51.08;23.30;;;2.50;78.60;;;;;;5098131;28;20062;-42
2020/12/16 15:42:02;;;;;;;40.20;20.08;;;2.40;78.70;;;;;;5096352;28;20016;-41
2020/12/16 15:44:28;;;;;;;46.70;23.05;;;2.40;78.70;;;;;;5096941;28;20046;-43
2020/12/16 15:46:54;;;;;;;47.30;20.67;;;2.40;78.90;;;;;;5095343;28;20024;-42
2020/12/16 15:49:22;;;;;;;47.42;23.52;;;2.50;79.10;;;;;;5098442;28;20023;-42
2020/12/16 15:51:48;;;;;;;46.50;20.33;;;2.40;79.30;;;;;;5097281;28;20025;-42
2020/12/16 15:54:14;;;;;;;45.58;23.30;;;2.40;79.20;;;;;;5097248;28;20020;-42
2020/12/16 15:56:39;;;;;;;38.75;20.58;;;2.40;78.90;;;;;;5097856;28;20030;-42
2020/12/16 15:59:05;;;;;;;45.60;22.27;;;2.40;79.00;;;;;;5097800;28;20034;-43
2020/12/16 16:01:31;;;;;;;44.05;20.25;;;2.40;79.00;;;;;;5097663;28;20028;-42
2020/12/16 16:03:57;;;;;;;49.40;20.35;;;2.40;78.90;;;;;;5096467;28;20130;-42
2020/12/16 16:06:23;;;;;;;47.78;22.05;;;2.40;79.00;;;;;;5096800;28;20103;-42
2020/12/16 16:08:49;;;;;;;45.90;20.38;;;2.40;79.10;;;;;;5095351;28;20039;-42
2020/12/16 16:11:17;;;;;;;54.58;22.30;;;2.30;79.10;;;;;;5094975;28;20334;-42
2020/12/16 16:13:42;;;;;;;53.88;24.00;;;2.40;79.20;;;;;;5095441;28;20127;-42
2020/12/16 16:16:08;;;;;;;46.67;20.27;;;2.40;79.40;;;;;;5097330;28;20098;-42
2020/12/16 16:18:34;;;;;;;43.70;18.90;;;2.40;79.50;;;;;;5097109;28;20401;-42
2020/12/16 16:20:59;;;;;;;48.25;21.85;;;2.40;79.40;;;;;;5096581;28;20020;-43
2020/12/16 16:23:25;;;;;;;54.80;21.83;;;2.40;79.40;;;;;;5095824;28;20104;-42
2020/12/16 16:25:51;;;;;;;42.92;19.92;;;2.40;79.30;;;;;;5097906;28;20028;-43
2020/12/16 16:28:18;;;;;;;40.90;19.25;;;2.40;79.30;;;;;;5095597;28;20028;-42
2020/12/16 16:30:43;;;;;;;45.33;19.75;;;2.40;79.50;;;;;;5097003;28;20027;-42
2020/12/16 16:33:09;;;;;;;50.40;22.23;;;2.40;79.70;;;;;;5096633;28;20043;-41
2020/12/16 16:35:35;;;;;;;51.00;22.23;;;2.30;79.50;;;;;;5096931;28;20047;-43
2020/12/16 16:38:03;;;;;;;44.38;21.02;;;2.30;79.30;;;;;;5096214;28;20043;-41
2020/12/16 16:40:30;;;;;;;53.22;26.15;;;2.30;79.30;;;;;;5097738;28;20024;-42
2020/12/16 16:42:59;;;;;;;51.70;22.92;;;2.30;79.40;;;;;;5095794;28;20048;-42
2020/12/16 16:45:26;;;;;;;46.03;21.75;;;2.30;79.50;;;;;;5095523;28;20023;-42
2020/12/16 16:47:52;;;;;;;40.65;19.95;;;2.20;79.50;;;;;;5096043;28;20016;-42
2020/12/16 16:50:18;;;;;;;46.63;22.08;;;2.20;79.70;;;;;;5096073;28;20455;-43
2020/12/16 16:52:43;;;;;;;47.15;21.98;;;2.30;79.90;;;;;;5096130;28;20024;-43
2020/12/16 16:55:09;;;;;;;51.90;23.58;;;2.20;79.70;;;;;;5095514;28;20367;-42
2020/12/16 16:57:36;;;;;;;61.95;27.60;;;2.20;79.70;;;;;;5096330;28;20024;-41
2020/12/16 17:00:05;;;;;;;44.60;21.70;;;2.20;79.80;;;;;;5096158;28;20026;-42
2020/12/16 17:02:31;;;;;;;45.55;20.20;;;2.20;79.80;;;;;;5095294;28;20028;-41
2020/12/16 17:04:57;;;;;;;49.80;21.48;;;2.20;79.80;;;;;;5095334;28;20023;-42
2020/12/16 17:07:22;;;;;;;47.05;20.65;;;2.10;79.90;;;;;;5094024;28;20081;-41
2020/12/16 17:09:51;;;;;;;38.53;18.50;;;2.10;79.50;;;;;;5095234;28;20016;-44
2020/12/16 17:12:18;;;;;;;47.58;21.63;;;2.10;79.50;;;;;;5095294;28;20059;-42
2020/12/16 17:14:44;;;;;;;50.22;22.90;;;2.10;79.80;;;;;;5095729;28;20333;-41
2020/12/16 17:17:10;;;;;;;43.05;19.60;;;2.10;79.80;;;;;;5096044;28;20031;-41
2020/12/16 17:19:39;;;;;;;40.58;20.55;;;2.10;79.90;;;;;;5096369;28;20031;-41
2020/12/16 17:22:05;;;;;;;47.05;22.15;;;2.00;80.00;;;;;;5095110;28;20409;-40
2020/12/16 17:24:32;;;;;;;49.17;22.33;;;2.00;80.10;;;;;;5095955;28;20085;-40
2020/12/16 17:26:58;;;;;;;49.88;22.90;;;2.00;80.20;;;;;;5097009;28;20529;-40
2020/12/16 17:29:23;;;;;;;46.88;21.23;;;2.00;80.20;;;;;;5096811;28;20028;-40
2020/12/16 17:31:49;;;;;;;45.72;21.73;;;2.00;80.20;;;;;;5096825;28;20065;-40
2020/12/16 17:34:15;;;;;;;43.38;20.00;;;2.00;80.30;;;;;;5097221;28;20023;-41
2020/12/16 17:36:40;;;;;;;43.13;20.75;;;2.00;80.30;;;;;;5096930;28;20440;-42
2020/12/16 17:39:06;;;;;;;43.42;19.67;;;2.00;80.40;;;;;;5097350;28;20028;-42
2020/12/16 17:41:32;;;;;;;42.10;20.40;;;2.00;80.50;;;;;;5096402;28;20020;-43
2020/12/16 17:43:57;;;;;;;34.78;17.63;;;2.00;80.70;;;;;;5095920;28;20085;-41
2020/12/16 17:46:28;;;;;;;40.60;18.98;;;2.00;80.80;;;;;;5096987;28;20027;-42
2020/12/16 17:48:56;;;;;;;31.65;15.52;;;2.10;80.70;;;;;;5097212;28;20032;-41
2020/12/16 17:51:25;;;;;;;33.50;16.58;;;2.10;80.50;;;;;;5095320;28;20024;-41
2020/12/16 17:53:51;;;;;;;34.00;17.17;;;2.00;80.30;;;;;;5096879;28;20111;-40
2020/12/16 17:56:17;;;;;;;33.45;17.20;;;2.10;80.30;;;;;;5095775;28;20027;-41
2020/12/16 17:58:43;;;;;;;37.85;18.85;;;2.00;80.20;;;;;;5096155;28;20101;-40
2020/12/16 18:01:12;;;;;;;37.45;18.52;;;2.00;80.20;;;;;;5095086;28;20467;-41
2020/12/16 18:03:42;;;;;;;41.22;19.52;;;2.00;80.30;;;;;;5095389;28;20039;-40
2020/12/16 18:06:08;;;;;;;36.75;17.63;;;2.00;80.40;;;;;;5094672;28;20206;-41
2020/12/16 18:08:34;;;;;;;41.03;20.45;;;2.00;80.30;;;;;;5094774;28;20028;-40
2020/12/16 18:11:00;;;;;;;35.15;17.92;;;2.00;80.40;;;;;;5095216;28;20115;-41
2020/12/16 18:13:26;;;;;;;34.75;18.00;;;2.00;80.60;;;;;;5095862;28;20103;-41
2020/12/16 18:15:52;;;;;;;37.70;18.92;;;2.00;80.70;;;;;;5096146;28;20028;-41
2020/12/16 18:18:18;;;;;;;30.90;17.48;;;2.00;80.70;;;;;;5096468;28;20028;-40
2020/12/16 18:20:44;;;;;;;35.63;18.83;;;2.00;80.60;;;;;;5096028;28;20035;-41
2020/12/16 18:23:11;;;;;;;30.67;16.23;;;1.90;80.70;;;;;;5094896;28;20047;-40
2020/12/16 18:25:39;;;;;;;29.75;15.07;;;2.00;80.80;;;;;;5095917;28;20032;-41
2020/12/16 18:28:05;;;;;;;29.65;13.60;;;2.00;80.80;;;;;;5090444;28;20040;-41
2020/12/16 18:30:32;;;;;;;26.55;13.50;;;2.00;80.70;;;;;;5094642;28;20429;-41
2020/12/16 18:32:59;;;;;;;25.33;12.52;;;2.00;80.60;;;;;;5095047;28;20024;-42
2020/12/16 18:35:25;;;;;;;23.33;11.80;;;2.00;80.40;;;;;;5095520;28;20176;-43
2020/12/16 18:37:52;;;;;;;22.65;11.00;;;2.00;80.30;;;;;;5097182;28;20031;-41
2020/12/16 18:40:19;;;;;;;17.20;10.10;;;2.00;80.50;;;;;;5093152;28;20024;-42
2020/12/16 18:42:51;;;;;;;18.58;10.15;;;2.00;80.30;;;;;;5094878;28;20458;-42
2020/12/16 18:45:19;;;;;;;20.45;10.48;;;2.00;80.40;;;;;;5093983;28;20101;-43
2020/12/16 18:47:45;;;;;;;18.95;11.13;;;2.00;80.30;;;;;;5095130;28;20032;-42
2020/12/16 18:50:13;;;;;;;23.95;13.48;;;2.00;80.30;;;;;;5093226;28;20028;-42
2020/12/16 18:52:44;;;;;;;25.13;12.23;;;2.00;80.40;;;;;;5095040;28;20123;-42
2020/12/16 18:55:12;;;;;;;23.48;13.10;;;2.00;80.90;;;;;;5094739;28;20036;-41
2020/12/16 18:57:39;;;;;;;25.98;13.10;;;2.00;80.50;;;;;;5093249;28;20139;-42
2020/12/16 19:00:11;;;;;;;23.48;11.88;;;2.00;80.40;;;;;;5092921;28;20024;-42